createdAt,value
2018-04-25T00:00:32.583Z,13.30
2018-04-25T00:03:00.099Z,13.40
2018-04-25T00:05:29.304Z,13.40
2018-04-25T00:07:56.838Z,13.40
2018-04-25T00:10:25.140Z,13.30
2018-04-25T00:12:52.999Z,13.30
2018-04-25T00:15:21.287Z,13.30
2018-04-25T00:17:48.818Z,13.30
2018-04-25T00:20:17.253Z,13.20
2018-04-25T00:22:44.782Z,13.20
2018-04-25T00:25:12.325Z,13.20
2018-04-25T00:27:40.643Z,13.10
2018-04-25T00:30:08.171Z,13.00
2018-04-25T00:32:35.691Z,13.00
2018-04-25T00:35:03.739Z,12.90
2018-04-25T00:37:31.252Z,12.90
2018-04-25T00:39:58.777Z,12.90
2018-04-25T00:42:26.351Z,13.00
2018-04-25T00:44:54.648Z,12.80
2018-04-25T00:47:22.187Z,12.80
2018-04-25T00:49:50.520Z,12.70
2018-04-25T00:52:18.055Z,12.60
2018-04-25T00:54:46.350Z,12.70
2018-04-25T00:57:16.776Z,12.70
2018-04-25T00:59:44.322Z,12.70
2018-04-25T01:02:11.866Z,12.70
2018-04-25T01:04:39.427Z,12.60
2018-04-25T01:07:08.548Z,12.70
2018-04-25T01:09:36.083Z,12.70
2018-04-25T01:12:04.006Z,12.70
2018-04-25T01:14:31.530Z,12.70
2018-04-25T01:16:59.075Z,12.80
2018-04-25T01:19:27.181Z,12.70
2018-04-25T01:21:54.715Z,12.70
2018-04-25T01:24:22.287Z,12.70
2018-04-25T01:26:51.680Z,12.70
2018-04-25T01:29:21.791Z,12.70
2018-04-25T01:31:49.318Z,12.70
2018-04-25T01:34:25.998Z,12.70
2018-04-25T01:40:04.190Z,12.60
2018-04-25T01:42:38.178Z,12.60
2018-04-25T01:45:10.338Z,12.70
2018-04-25T01:47:38.670Z,12.70
2018-04-25T01:50:08.131Z,12.60
2018-04-25T01:52:47.278Z,12.60
2018-04-25T01:55:28.062Z,12.60
2018-04-25T01:58:07.504Z,12.50
2018-04-25T02:00:46.855Z,12.50
2018-04-25T02:03:15.378Z,12.50
2018-04-25T02:15:45.150Z,12.00
2018-04-25T02:18:13.613Z,12.00
2018-04-25T02:20:41.163Z,12.00
2018-04-25T02:23:08.698Z,12.00
2018-04-25T02:25:36.979Z,12.10
2018-04-25T02:28:05.288Z,12.10
2018-04-25T02:30:32.841Z,12.10
2018-04-25T02:33:00.354Z,12.10
2018-04-25T02:35:28.691Z,12.10
2018-04-25T02:37:56.868Z,12.10
2018-04-25T02:40:24.399Z,12.10
2018-04-25T02:42:51.935Z,12.10
2018-04-25T02:45:19.519Z,12.10
2018-04-25T02:47:47.131Z,12.10
2018-04-25T02:50:16.379Z,12.10
2018-04-25T02:52:43.919Z,12.00
2018-04-25T02:55:11.451Z,12.10
2018-04-25T02:57:38.976Z,12.00
2018-04-25T03:00:06.581Z,12.00
2018-04-25T03:02:34.886Z,11.90
2018-04-25T03:05:02.427Z,11.90
2018-04-25T03:07:30.007Z,11.80
2018-04-25T03:09:57.539Z,11.80
2018-04-25T03:12:25.064Z,11.80
2018-04-25T03:14:52.679Z,11.80
2018-04-25T03:17:20.747Z,11.80
2018-04-25T03:19:48.290Z,11.80
2018-04-25T03:22:17.767Z,11.80
2018-04-25T03:24:45.298Z,11.70
2018-04-25T03:27:13.743Z,11.70
2018-04-25T03:29:41.289Z,11.70
2018-04-25T03:32:09.669Z,11.80
2018-04-25T03:34:37.967Z,11.80
2018-04-25T03:37:05.531Z,11.80
2018-04-25T03:39:33.058Z,11.80
2018-04-25T03:42:01.383Z,11.80
2018-04-25T03:44:29.353Z,11.80
2018-04-25T03:46:56.875Z,11.80
2018-04-25T03:49:24.410Z,11.70
2018-04-25T03:51:52.771Z,11.80
2018-04-25T03:54:20.322Z,11.80
2018-04-25T03:56:47.864Z,11.80
2018-04-25T03:59:15.571Z,11.90
2018-04-25T04:01:43.902Z,11.90
2018-04-25T04:04:11.787Z,11.90
2018-04-25T04:06:39.415Z,11.80
2018-04-25T04:09:06.940Z,11.80
2018-04-25T04:11:34.459Z,11.70
2018-04-25T04:14:02.104Z,11.70
2018-04-25T04:16:30.356Z,11.60
2018-04-25T04:18:58.235Z,11.60
2018-04-25T04:21:25.830Z,11.60
2018-04-25T04:23:53.353Z,11.60
2018-04-25T04:26:20.938Z,11.60
2018-04-25T04:28:48.878Z,11.60
2018-04-25T04:31:17.233Z,11.70
2018-04-25T04:33:45.766Z,11.70
2018-04-25T04:36:25.111Z,11.70
2018-04-25T04:38:52.691Z,11.70
2018-04-25T04:41:21.060Z,11.90
2018-04-25T04:43:48.627Z,11.90
2018-04-25T04:46:17.906Z,11.90
2018-04-25T04:48:45.425Z,11.90
2018-04-25T04:51:26.029Z,12.00
2018-04-25T04:57:01.143Z,12.00
2018-04-25T04:59:28.661Z,12.00
2018-04-25T05:01:56.187Z,12.00
2018-04-25T05:04:23.738Z,12.10
2018-04-25T05:06:51.693Z,12.20
2018-04-25T05:09:19.163Z,12.20
2018-04-25T05:11:46.729Z,12.30
2018-04-25T05:14:15.523Z,12.50
2018-04-25T05:16:43.045Z,12.50
2018-04-25T05:19:11.142Z,12.60
2018-04-25T05:21:38.659Z,12.60
2018-04-25T05:24:06.947Z,12.80
2018-04-25T05:26:34.551Z,12.80
2018-04-25T05:29:02.066Z,12.80
2018-04-25T05:31:30.393Z,13.00
2018-04-25T05:33:58.396Z,12.90
2018-04-25T05:36:26.694Z,13.10
2018-04-25T05:38:54.216Z,13.00
2018-04-25T05:41:22.526Z,13.30
2018-04-25T05:43:50.114Z,13.30
2018-04-25T05:46:17.654Z,13.40
2018-04-25T05:48:45.203Z,13.60
2018-04-25T05:51:13.654Z,13.60
2018-04-25T05:53:41.949Z,14.00
2018-04-25T05:56:09.799Z,13.90
2018-04-25T05:58:38.088Z,14.30
2018-04-25T06:01:06.393Z,14.40
2018-04-25T06:03:34.969Z,14.40
2018-04-25T06:06:02.523Z,14.60
2018-04-25T06:08:30.053Z,14.80
2018-04-25T06:10:58.363Z,15.00
2018-04-25T06:13:26.044Z,15.00
2018-04-25T06:15:53.578Z,15.30
2018-04-25T06:18:21.168Z,15.60
2018-04-25T06:20:49.582Z,16.40
2018-04-25T06:23:17.096Z,17.40
2018-04-25T06:25:44.631Z,18.60
2018-04-25T06:28:12.238Z,20.00
2018-04-25T06:30:40.461Z,21.60
2018-04-25T06:33:08.002Z,21.60
2018-04-25T06:35:36.309Z,22.00
2018-04-25T06:38:03.838Z,21.90
2018-04-25T06:40:31.863Z,21.40
2018-04-25T06:42:59.391Z,21.40
2018-04-25T06:45:26.910Z,21.80
2018-04-25T06:47:55.286Z,22.40
2018-04-25T06:50:22.802Z,22.40
2018-04-25T06:52:50.313Z,23.20
2018-04-25T06:55:18.627Z,24.00
2018-04-25T06:57:46.158Z,23.90
2018-04-25T07:00:15.462Z,25.30
2018-04-25T07:02:43.318Z,25.20
2018-04-25T07:05:11.672Z,27.30
2018-04-25T07:07:39.187Z,27.20
2018-04-25T07:10:06.726Z,27.30
2018-04-25T07:12:33.789Z,27.50
2018-04-25T07:15:01.310Z,27.60
2018-04-25T07:17:29.629Z,28.00
2018-04-25T07:19:57.146Z,28.00
2018-04-25T07:22:25.780Z,28.10
2018-04-25T07:24:53.630Z,28.10
2018-04-25T07:27:21.178Z,27.30
2018-04-25T07:29:48.690Z,27.20
2018-04-25T07:32:16.452Z,28.20
2018-04-25T07:34:43.987Z,28.10
2018-04-25T07:37:11.504Z,27.40
2018-04-25T07:39:39.039Z,28.10
2018-04-25T07:42:07.346Z,28.40
2018-04-25T07:44:34.909Z,28.40
2018-04-25T07:47:03.216Z,27.80
2018-04-25T07:49:30.862Z,28.20
2018-04-25T07:51:58.390Z,28.20
2018-04-25T07:54:26.696Z,29.90
2018-04-25T07:56:54.212Z,29.90
2018-04-25T07:59:22.502Z,29.10
2018-04-25T08:01:51.026Z,29.60
2018-04-25T08:04:18.547Z,29.60
2018-04-25T08:06:46.054Z,30.40
2018-04-25T08:09:15.813Z,30.60
2018-04-25T08:11:44.111Z,30.20
2018-04-25T08:14:23.301Z,30.20
2018-04-25T08:17:03.378Z,29.30
2018-04-25T08:19:54.639Z,29.30
2018-04-25T08:22:22.154Z,29.50
2018-04-25T08:24:50.605Z,30.00
2018-04-25T08:27:18.634Z,30.40
2018-04-25T08:29:46.155Z,30.50
2018-04-25T08:32:26.669Z,32.20
2018-04-25T08:38:55.439Z,32.00
2018-04-25T08:41:22.959Z,32.00
2018-04-25T08:43:51.266Z,30.60
2018-04-25T08:46:18.863Z,30.50
2018-04-25T08:48:46.380Z,30.80
2018-04-25T08:51:26.560Z,32.00
2018-04-25T08:54:10.162Z,31.90
2018-04-25T08:56:38.474Z,31.40
2018-04-25T08:59:06.458Z,31.30
2018-04-25T09:01:33.983Z,31.80
2018-04-25T09:04:01.827Z,30.80
2018-04-25T09:06:30.099Z,31.00
2018-04-25T09:08:57.610Z,31.00
2018-04-25T09:11:25.171Z,30.70
2018-04-25T09:13:52.696Z,30.70
2018-04-25T09:16:20.224Z,31.40
2018-04-25T09:18:47.773Z,30.60
2018-04-25T09:21:15.506Z,28.50
2018-04-25T09:23:43.015Z,28.20
2018-04-25T09:26:14.869Z,29.00
2018-04-25T09:28:43.478Z,29.50
2018-04-25T09:31:10.997Z,29.40
2018-04-25T09:33:38.530Z,29.20
2018-04-25T09:36:06.045Z,29.00
2018-04-25T09:38:34.317Z,29.40
2018-04-25T09:41:02.642Z,28.90
2018-04-25T09:43:30.180Z,28.90
2018-04-25T09:45:57.775Z,27.90
2018-04-25T09:48:25.798Z,26.70
2018-04-25T09:50:53.339Z,25.80
2018-04-25T09:53:20.866Z,26.40
2018-04-25T09:55:48.418Z,26.00
2018-04-25T09:58:16.821Z,25.40
2018-04-25T10:00:50.071Z,24.90
2018-04-25T10:03:23.430Z,24.50
2018-04-25T10:05:52.266Z,24.20
2018-04-25T10:08:19.782Z,24.10
2018-04-25T10:10:47.726Z,24.30
2018-04-25T10:13:16.294Z,24.30
2018-04-25T10:15:43.810Z,24.20
2018-04-25T10:18:11.365Z,24.40
2018-04-25T10:20:38.923Z,24.20
2018-04-25T10:23:06.467Z,24.10
2018-04-25T10:25:34.046Z,24.30
2018-04-25T10:28:02.398Z,24.30
2018-04-25T10:30:30.669Z,24.40
2018-04-25T10:32:59.139Z,24.60
2018-04-25T10:35:27.470Z,24.50
2018-04-25T10:37:54.995Z,24.50
2018-04-25T10:40:22.525Z,24.30
2018-04-25T10:42:50.642Z,24.00
2018-04-25T10:45:18.179Z,23.60
2018-04-25T10:47:45.710Z,23.50
2018-04-25T10:50:15.694Z,23.50
2018-04-25T10:52:43.205Z,23.50
2018-04-25T10:55:10.769Z,23.50
2018-04-25T10:57:38.339Z,23.40
2018-04-25T11:00:05.881Z,23.40
2018-04-25T11:02:34.218Z,23.90
2018-04-25T11:05:01.819Z,23.80
2018-04-25T11:07:30.193Z,24.20
2018-04-25T11:09:57.649Z,24.20
2018-04-25T11:12:26.325Z,24.30
2018-04-25T11:14:55.350Z,24.40
2018-04-25T11:17:22.871Z,24.40
2018-04-25T11:19:50.440Z,24.60
2018-04-25T11:22:18.730Z,24.80
2018-04-25T11:24:47.086Z,24.70
2018-04-25T11:27:15.504Z,24.70
2018-04-25T11:29:43.306Z,24.60
2018-04-25T11:32:11.338Z,24.60
2018-04-25T11:34:38.963Z,24.50
2018-04-25T11:37:07.292Z,24.50
2018-04-25T11:39:34.839Z,24.50
2018-04-25T11:42:02.607Z,24.50
2018-04-25T11:44:30.584Z,24.30
2018-04-25T11:46:58.779Z,24.20
2018-04-25T11:49:27.299Z,24.50
2018-04-25T11:51:55.587Z,24.60
2018-04-25T11:54:23.931Z,24.80
2018-04-25T11:56:52.234Z,24.80
2018-04-25T11:59:20.620Z,24.80
2018-04-25T12:01:48.529Z,24.80
2018-04-25T12:04:16.653Z,24.70
2018-04-25T12:06:44.343Z,24.50
2018-04-25T12:09:13.751Z,24.50
2018-04-25T12:11:41.367Z,24.60
2018-04-25T12:14:08.939Z,24.70
2018-04-25T12:16:36.471Z,24.70
2018-04-25T12:19:04.314Z,24.80
2018-04-25T12:21:31.847Z,24.90
2018-04-25T12:23:59.407Z,24.60
2018-04-25T12:26:27.918Z,24.70
2018-04-25T12:28:55.455Z,24.70
2018-04-25T12:31:23.412Z,24.70
2018-04-25T12:33:50.964Z,24.70
2018-04-25T12:36:18.495Z,24.90
2018-04-25T12:38:46.018Z,24.90
2018-04-25T12:41:15.514Z,24.90
2018-04-25T12:43:43.026Z,24.90
2018-04-25T12:46:11.308Z,24.90
2018-04-25T12:48:38.853Z,24.90
2018-04-25T12:51:06.371Z,25.00
2018-04-25T12:53:33.895Z,25.00
2018-04-25T12:56:01.443Z,24.90
2018-04-25T12:58:28.969Z,24.90
2018-04-25T13:00:57.315Z,24.80
2018-04-25T13:03:25.153Z,24.80
2018-04-25T13:05:52.684Z,24.60
2018-04-25T13:08:21.017Z,24.70
2018-04-25T13:10:48.570Z,24.60
2018-04-25T13:13:17.220Z,24.70
2018-04-25T13:15:45.535Z,24.60
2018-04-25T13:18:19.750Z,24.70
2018-04-25T13:20:47.275Z,24.70
2018-04-25T13:23:17.170Z,24.60
2018-04-25T13:25:45.075Z,24.60
2018-04-25T13:28:12.619Z,24.80
2018-04-25T13:30:40.157Z,24.90
2018-04-25T13:33:08.771Z,24.70
2018-04-25T13:35:36.302Z,24.70
2018-04-25T13:38:04.591Z,24.80
2018-04-25T13:40:32.121Z,24.80
2018-04-25T13:42:59.644Z,24.90
2018-04-25T13:45:27.160Z,24.60
2018-04-25T13:47:55.046Z,24.30
2018-04-25T13:50:22.566Z,24.20
2018-04-25T13:52:50.883Z,24.50
2018-04-25T13:55:18.441Z,24.50
2018-04-25T13:57:45.963Z,24.50
2018-04-25T14:00:15.383Z,24.60
2018-04-25T14:02:42.930Z,24.60
2018-04-25T14:05:11.224Z,24.50
2018-04-25T14:07:38.751Z,24.50
2018-04-25T14:10:07.296Z,24.60
2018-04-25T14:12:34.811Z,24.60
2018-04-25T14:15:03.095Z,24.70
2018-04-25T14:17:30.647Z,24.60
2018-04-25T14:19:58.228Z,24.60
2018-04-25T14:22:26.503Z,24.30
2018-04-25T14:24:54.083Z,24.30
2018-04-25T14:27:21.599Z,24.20
2018-04-25T14:29:49.902Z,24.30
2018-04-25T14:32:17.719Z,24.30
2018-04-25T14:34:45.513Z,24.30
2018-04-25T14:37:25.011Z,24.10
2018-04-25T14:42:25.417Z,24.10
2018-04-25T14:44:53.122Z,24.20
2018-04-25T14:47:20.646Z,24.10
2018-04-25T14:49:48.923Z,24.10
2018-04-25T14:52:16.505Z,24.10
2018-04-25T14:54:44.090Z,24.10
2018-04-25T14:57:11.561Z,23.90
2018-04-25T14:59:39.158Z,23.90
2018-04-25T15:02:06.675Z,23.90
2018-04-25T15:04:35.755Z,24.10
2018-04-25T15:07:04.027Z,24.10
2018-04-25T15:09:31.563Z,24.20
2018-04-25T15:11:59.155Z,24.10
2018-04-25T15:14:27.200Z,24.20
2018-04-25T15:16:55.515Z,24.30
2018-04-25T15:19:23.802Z,24.50
2018-04-25T15:21:51.354Z,24.50
2018-04-25T15:24:20.045Z,24.40
2018-04-25T15:26:47.595Z,24.30
2018-04-25T15:29:15.906Z,24.20
2018-04-25T15:31:43.556Z,24.10
2018-04-25T15:34:12.288Z,23.90
2018-04-25T15:36:41.888Z,23.90
2018-04-25T15:39:09.549Z,24.00
2018-04-25T15:41:37.202Z,24.00
2018-04-25T15:44:05.561Z,24.10
2018-04-25T15:46:34.642Z,24.10
2018-04-25T15:49:02.970Z,23.80
2018-04-25T15:51:30.542Z,23.70
2018-04-25T15:54:00.618Z,23.70
2018-04-25T15:56:28.196Z,23.70
2018-04-25T15:58:56.320Z,23.60
2018-04-25T16:01:25.006Z,23.50
2018-04-25T16:03:52.592Z,23.50
2018-04-25T16:06:20.179Z,23.50
2018-04-25T16:08:47.838Z,23.50
2018-04-25T16:11:15.522Z,23.50
2018-04-25T16:13:44.022Z,23.30
2018-04-25T16:16:11.642Z,23.20
2018-04-25T16:18:39.194Z,23.20
2018-04-25T16:21:06.956Z,23.10
2018-04-25T16:23:34.530Z,22.90
2018-04-25T16:26:02.168Z,22.70
2018-04-25T16:28:29.722Z,22.70
2018-04-25T16:30:57.279Z,22.80
2018-04-25T16:33:24.865Z,22.80
2018-04-25T16:35:53.212Z,22.70
2018-04-25T16:38:21.174Z,22.70
2018-04-25T16:40:48.696Z,22.60
2018-04-25T16:43:16.914Z,22.40
2018-04-25T16:45:44.451Z,22.40
2018-04-25T16:48:12.002Z,22.40
2018-04-25T16:50:39.588Z,22.20
2018-04-25T16:53:07.128Z,22.10
2018-04-25T16:55:34.648Z,22.20
2018-04-25T16:58:02.978Z,22.20
2018-04-25T17:00:30.573Z,22.20
2018-04-25T17:02:58.880Z,22.30
2018-04-25T17:05:27.932Z,22.20
2018-04-25T17:07:55.487Z,22.20
2018-04-25T17:10:23.049Z,22.30
2018-04-25T17:12:50.593Z,22.20
2018-04-25T17:15:18.106Z,22.10
2018-04-25T17:17:45.685Z,22.00
2018-04-25T17:20:15.526Z,21.90
2018-04-25T17:22:43.116Z,21.90
2018-04-25T17:25:10.700Z,22.00
2018-04-25T17:27:38.908Z,22.00
2018-04-25T17:30:06.435Z,22.10
2018-04-25T17:32:34.718Z,22.10
2018-04-25T17:35:02.271Z,22.00
2018-04-25T17:37:30.628Z,21.90
2018-04-25T17:39:58.510Z,21.90
2018-04-25T17:42:26.962Z,21.70
2018-04-25T17:44:54.704Z,21.70
2018-04-25T17:47:22.242Z,21.50
2018-04-25T17:49:50.067Z,21.40
2018-04-25T17:52:17.605Z,21.30
2018-04-25T17:54:45.197Z,21.20
2018-04-25T17:57:13.712Z,21.00
2018-04-25T17:59:41.223Z,21.00
2018-04-25T18:02:09.536Z,20.80
2018-04-25T18:04:37.192Z,20.80
2018-04-25T18:07:04.726Z,20.70
2018-04-25T18:09:32.320Z,20.50
2018-04-25T18:12:00.878Z,20.50
2018-04-25T18:14:28.410Z,20.30
2018-04-25T18:16:55.989Z,20.30
2018-04-25T18:19:23.499Z,20.10
2018-04-25T18:21:51.126Z,20.00
2018-04-25T18:24:18.726Z,19.90
2018-04-25T18:26:46.282Z,19.90
2018-04-25T18:29:15.493Z,19.80
2018-04-25T18:31:42.999Z,19.70
2018-04-25T18:34:10.558Z,19.60
2018-04-25T18:36:39.406Z,19.50
2018-04-25T18:39:06.987Z,19.50
2018-04-25T18:41:36.222Z,19.40
2018-04-25T18:44:03.804Z,19.30
2018-04-25T18:46:31.474Z,19.20
2018-04-25T18:48:59.091Z,19.10
2018-04-25T18:51:26.690Z,19.00
2018-04-25T18:53:54.364Z,18.90
2018-04-25T18:56:21.974Z,18.80
2018-04-25T18:58:49.580Z,18.90
2018-04-25T19:01:17.101Z,18.90
2018-04-25T19:03:44.647Z,18.80
2018-04-25T19:06:12.194Z,18.70
2018-04-25T19:08:39.765Z,18.70
2018-04-25T19:11:07.362Z,18.70
2018-04-25T19:13:34.874Z,18.80
2018-04-25T19:16:02.447Z,18.60
2018-04-25T19:18:30.051Z,18.60
2018-04-25T19:20:57.622Z,18.50
2018-04-25T19:23:25.195Z,18.50
2018-04-25T19:25:53.544Z,18.40
2018-04-25T19:28:21.091Z,18.40
2018-04-25T19:30:48.624Z,18.30
2018-04-25T19:33:16.478Z,18.40
2018-04-25T19:35:44.014Z,18.40
2018-04-25T19:38:11.541Z,18.40
2018-04-25T19:40:39.151Z,18.30
2018-04-25T19:43:07.427Z,18.30
2018-04-25T19:45:34.980Z,18.20
2018-04-25T19:48:03.294Z,18.10
2018-04-25T19:50:30.825Z,18.10
2018-04-25T19:52:58.375Z,18.10
2018-04-25T19:55:25.931Z,18.10
2018-04-25T19:57:53.471Z,18.10
2018-04-25T20:00:21.749Z,18.00
2018-04-25T20:02:50.123Z,17.90
2018-04-25T20:05:18.416Z,17.90
2018-04-25T20:07:45.936Z,17.90
2018-04-25T20:10:14.649Z,17.80
2018-04-25T20:12:42.955Z,17.60
2018-04-25T20:15:10.675Z,17.60
2018-04-25T20:17:38.265Z,17.60
2018-04-25T20:20:06.631Z,17.30
2018-04-25T20:22:34.187Z,17.30
2018-04-25T20:25:02.543Z,17.30
2018-04-25T20:27:30.052Z,17.30
2018-04-25T20:29:57.578Z,17.30
2018-04-25T20:32:25.161Z,17.30
2018-04-25T20:34:52.858Z,17.20
2018-04-25T20:37:20.403Z,17.20
2018-04-25T20:39:47.938Z,17.20
2018-04-25T20:42:17.234Z,17.30
2018-04-25T20:44:45.236Z,17.30
2018-04-25T20:47:14.865Z,17.20
2018-04-25T20:49:42.383Z,17.20
2018-04-25T20:52:09.908Z,17.20
2018-04-25T20:54:37.464Z,17.20
2018-04-25T20:57:04.986Z,17.20
2018-04-25T20:59:32.502Z,17.20
2018-04-25T21:02:00.102Z,17.20
2018-04-25T21:04:27.746Z,17.20
2018-04-25T21:06:55.263Z,17.20
2018-04-25T21:09:22.843Z,17.20
2018-04-25T21:11:50.368Z,17.20
2018-04-25T21:14:17.893Z,17.20
2018-04-25T21:16:45.431Z,17.20
2018-04-25T21:19:14.416Z,17.20
2018-04-25T21:21:41.947Z,17.20
2018-04-25T21:24:09.503Z,17.20
2018-04-25T21:26:37.015Z,17.30
2018-04-25T21:29:04.528Z,17.30
2018-04-25T21:31:32.471Z,17.30
2018-04-25T21:33:59.894Z,17.20
2018-04-25T21:36:27.427Z,17.20
2018-04-25T21:38:55.743Z,17.00
2018-04-25T21:41:23.282Z,17.00
2018-04-25T21:43:50.795Z,17.00
2018-04-25T21:46:18.993Z,17.00
2018-04-25T21:48:46.522Z,16.90
2018-04-25T21:51:16.281Z,16.70
2018-04-25T21:53:44.028Z,16.60
2018-04-25T21:56:11.555Z,16.60
2018-04-25T21:58:39.071Z,16.50
2018-04-25T22:01:06.752Z,16.50
2018-04-25T22:03:34.273Z,16.40
2018-04-25T22:06:01.785Z,16.30
2018-04-25T22:08:29.323Z,16.30
2018-04-25T22:10:56.855Z,16.30
2018-04-25T22:13:24.382Z,16.40
2018-04-25T22:15:53.416Z,16.50
2018-04-25T22:18:20.942Z,16.50
2018-04-25T22:20:48.467Z,16.50
2018-04-25T22:23:17.233Z,16.40
2018-04-25T22:25:44.747Z,16.40
2018-04-25T22:28:12.271Z,16.30
2018-04-25T22:30:39.826Z,16.30
2018-04-25T22:33:07.339Z,16.30
2018-04-25T22:35:34.910Z,16.30
2018-04-25T22:38:03.088Z,16.30
2018-04-25T22:40:30.606Z,16.30
2018-04-25T22:42:58.136Z,16.30
2018-04-25T22:45:25.679Z,16.30
2018-04-25T22:47:53.987Z,16.30
2018-04-25T22:50:21.510Z,16.30
2018-04-25T22:52:49.052Z,16.30
2018-04-25T22:55:16.603Z,16.20
2018-04-25T22:57:44.146Z,16.20
2018-04-25T23:00:11.922Z,16.20
2018-04-25T23:02:39.465Z,16.10
2018-04-25T23:05:07.772Z,16.20
2018-04-25T23:07:35.327Z,16.20
2018-04-25T23:10:02.843Z,16.20
2018-04-25T23:12:31.143Z,16.10
2018-04-25T23:14:58.704Z,16.10
2018-04-25T23:17:26.222Z,16.10
2018-04-25T23:19:53.743Z,16.00
2018-04-25T23:22:21.934Z,15.90
2018-04-25T23:24:49.455Z,15.90
2018-04-25T23:27:16.981Z,15.80
2018-04-25T23:29:44.532Z,15.60
2018-04-25T23:32:12.062Z,15.60
2018-04-25T23:34:39.578Z,15.50
2018-04-25T23:37:07.128Z,15.40
2018-04-25T23:39:35.419Z,15.30
2018-04-25T23:42:02.931Z,15.30
2018-04-25T23:44:30.810Z,15.30
2018-04-25T23:46:58.327Z,15.30
2018-04-25T23:49:26.784Z,15.40
2018-04-25T23:51:54.346Z,15.40
2018-04-25T23:54:22.662Z,15.30
2018-04-25T23:56:50.543Z,15.30
2018-04-25T23:59:18.082Z,15.40
